Time;durP1;ratioP1;P1;durP2;ratioP2;P2;SDS_P1;SDS_P2;PMS_P1;PMS_P2;Temp;Humidity;BMP_temperature;BMP_pressure;BME280_temperature;BME280_humidity;BME280_pressure;Samples;Min_cycle;Max_cycle;Signal;HPM_P1;HPM_P2
2021/05/21 00:00:39;;;;;;;1.55;0.77;;;14.10;99.90;;;;;;9960929;29;20478;-51
2021/05/21 00:05:39;;;;;;;1.52;0.40;;;14.10;99.90;;;;;;9959503;29;20422;-51
2021/05/21 00:10:41;;;;;;;2.05;0.40;;;13.90;99.90;;;;;;9958187;29;20429;-51
2021/05/21 00:15:42;;;;;;;5.43;0.68;;;13.90;99.90;;;;;;9959207;29;20739;-52
2021/05/21 00:20:42;;;;;;;5.10;1.00;;;13.90;99.90;;;;;;9949539;29;20058;-51
2021/05/21 00:25:43;;;;;;;4.32;0.52;;;13.40;99.90;;;;;;9966019;29;20054;-51
2021/05/21 00:30:44;;;;;;;2.10;0.50;;;13.00;99.90;;;;;;9967473;29;20042;-51
2021/05/21 00:35:44;;;;;;;3.80;1.15;;;12.80;99.90;;;;;;9966885;29;20403;-51
2021/05/21 00:40:45;;;;;;;4.85;0.70;;;12.80;99.90;;;;;;9965777;29;20055;-51
2021/05/21 00:45:46;;;;;;;2.35;0.50;;;12.70;99.90;;;;;;9965871;29;20057;-51
2021/05/21 00:50:49;;;;;;;5.10;0.40;;;12.70;99.90;;;;;;9969694;29;20086;-52
2021/05/21 00:55:49;;;;;;;5.25;1.80;;;12.60;99.90;;;;;;9966320;29;20098;-51
2021/05/21 01:00:54;;;;;;;14.27;0.70;;;12.60;99.90;;;;;;9967745;29;20050;-51
2021/05/21 01:05:55;;;;;;;8.85;0.70;;;12.70;99.90;;;;;;9968143;29;20176;-51
2021/05/21 01:10:56;;;;;;;3.80;0.70;;;12.70;99.90;;;;;;9966145;29;20262;-52
2021/05/21 01:15:56;;;;;;;5.32;1.50;;;12.70;99.90;;;;;;9966410;29;20058;-51
2021/05/21 01:20:58;;;;;;;3.00;0.47;;;12.50;99.90;;;;;;9966679;29;20749;-52
2021/05/21 01:25:59;;;;;;;5.10;1.52;;;12.50;99.90;;;;;;9961685;29;20054;-51
2021/05/21 01:30:59;;;;;;;2.92;0.98;;;12.40;99.90;;;;;;9964136;29;20043;-51
2021/05/21 01:36:00;;;;;;;2.97;0.40;;;12.10;99.90;;;;;;9969042;29;20058;-50
2021/05/21 01:41:01;;;;;;;2.42;1.67;;;11.90;99.90;;;;;;9966611;29;20066;-50
2021/05/21 01:46:02;;;;;;;0.70;0.30;;;11.60;99.90;;;;;;9965915;29;20495;-51
2021/05/21 01:51:03;;;;;;;4.10;0.88;;;11.40;99.90;;;;;;9963246;29;20058;-50
2021/05/21 01:56:06;;;;;;;1.55;0.52;;;11.20;99.90;;;;;;9965611;29;20047;-51
2021/05/21 02:01:06;;;;;;;6.75;1.58;;;11.10;99.90;;;;;;9964093;29;20062;-51
2021/05/21 02:06:07;;;;;;;5.40;0.80;;;11.10;99.90;;;;;;9966472;29;20160;-51
2021/05/21 02:11:08;;;;;;;3.03;1.35;;;11.10;99.90;;;;;;9968122;29;20042;-51
2021/05/21 02:16:09;;;;;;;2.85;0.73;;;11.10;99.90;;;;;;9931118;29;20073;-51
2021/05/21 02:21:10;;;;;;;6.25;1.63;;;11.20;99.90;;;;;;9925503;29;20047;-52
2021/05/21 02:26:11;;;;;;;8.80;0.57;;;11.30;99.90;;;;;;9925530;29;21287;-51
2021/05/21 02:31:11;;;;;;;9.15;2.08;;;11.30;99.90;;;;;;9927146;29;20051;-51
2021/05/21 02:36:12;;;;;;;1.23;0.30;;;11.40;99.90;;;;;;9925594;29;20069;-51
2021/05/21 02:41:13;;;;;;;7.88;1.15;;;11.40;99.90;;;;;;9926180;29;20082;-51
2021/05/21 02:46:14;;;;;;;2.35;0.52;;;11.40;99.90;;;;;;9927852;29;20137;-51
2021/05/21 02:51:15;;;;;;;6.85;0.90;;;11.40;99.90;;;;;;9924294;29;20057;-51
2021/05/21 02:56:15;;;;;;;3.65;0.70;;;11.40;99.90;;;;;;9926043;29;20055;-51
2021/05/21 03:01:17;;;;;;;2.47;0.57;;;11.30;99.90;;;;;;9924566;29;20078;-51
2021/05/21 03:06:17;;;;;;;3.42;1.10;;;11.30;99.90;;;;;;9922554;29;20498;-51
2021/05/21 03:11:19;;;;;;;6.38;0.40;;;11.20;99.90;;;;;;9926770;29;20452;-51
2021/05/21 03:16:20;;;;;;;4.43;1.08;;;11.20;99.90;;;;;;9962004;29;20062;-51
2021/05/21 03:21:21;;;;;;;5.80;1.00;;;11.00;99.90;;;;;;9962560;29;20509;-51
2021/05/21 03:26:21;;;;;;;6.45;1.02;;;11.00;99.90;;;;;;9959677;29;20050;-51
2021/05/21 03:31:22;;;;;;;7.93;1.10;;;10.90;99.90;;;;;;9959876;29;20503;-51
2021/05/21 03:36:23;;;;;;;3.20;1.10;;;10.90;99.90;;;;;;9962312;29;20079;-51
2021/05/21 03:41:23;;;;;;;1.85;0.40;;;10.90;99.90;;;;;;9963280;29;20118;-51
2021/05/21 03:46:24;;;;;;;7.10;1.17;;;10.90;99.90;;;;;;9962299;29;20039;-51
2021/05/21 03:51:24;;;;;;;2.58;0.65;;;11.00;99.90;;;;;;9962017;29;20602;-51
2021/05/21 03:56:26;;;;;;;7.72;1.23;;;10.90;99.90;;;;;;9963906;29;20581;-51
2021/05/21 04:01:27;;;;;;;7.97;0.98;;;10.80;99.90;;;;;;9970706;29;20172;-51
2021/05/21 04:06:28;;;;;;;8.00;1.35;;;10.80;99.90;;;;;;9967671;29;20478;-50
2021/05/21 04:11:28;;;;;;;4.00;0.90;;;10.80;99.90;;;;;;9967293;29;20050;-51
2021/05/21 04:16:29;;;;;;;3.90;0.50;;;11.00;99.90;;;;;;9966005;29;20687;-51
2021/05/21 04:21:30;;;;;;;1.90;1.10;;;11.00;99.90;;;;;;9968918;29;20054;-51
2021/05/21 04:26:30;;;;;;;5.85;0.90;;;11.00;99.90;;;;;;9968259;29;20077;-51
2021/05/21 04:31:31;;;;;;;4.15;0.60;;;11.00;99.90;;;;;;9968145;29;20089;-51
2021/05/21 04:36:32;;;;;;;4.25;0.70;;;11.10;99.90;;;;;;9966935;29;20054;-51
2021/05/21 04:41:32;;;;;;;8.32;1.33;;;11.30;99.90;;;;;;9966822;29;20444;-51
2021/05/21 04:46:33;;;;;;;3.60;1.00;;;11.50;99.90;;;;;;9966312;29;20517;-51
2021/05/21 04:51:34;;;;;;;5.47;1.77;;;11.70;99.90;;;;;;9965392;29;20321;-51
2021/05/21 04:56:35;;;;;;;4.70;1.23;;;11.80;99.90;;;;;;9964747;29;20407;-51
2021/05/21 05:01:36;;;;;;;3.95;1.02;;;11.80;99.90;;;;;;9965572;29;20142;-51
2021/05/21 05:06:36;;;;;;;4.82;0.50;;;11.80;99.90;;;;;;9964944;29;20107;-50
2021/05/21 05:11:40;;;;;;;6.10;1.15;;;11.80;99.90;;;;;;9966360;29;20046;-50
2021/05/21 05:16:42;;;;;;;7.35;1.27;;;12.00;99.90;;;;;;9965945;29;20030;-51
2021/05/21 05:21:44;;;;;;;4.85;1.98;;;12.00;99.90;;;;;;9966788;29;20057;-50
2021/05/21 05:26:46;;;;;;;7.60;0.65;;;12.20;99.90;;;;;;9972701;29;20158;-50
2021/05/21 05:31:47;;;;;;;2.58;0.85;;;12.40;99.90;;;;;;9967280;29;20053;-50
2021/05/21 05:36:48;;;;;;;3.55;0.80;;;12.50;99.90;;;;;;9968325;29;20053;-50
2021/05/21 05:41:52;;;;;;;1.73;0.50;;;12.60;99.90;;;;;;9967613;29;20483;-51
2021/05/21 05:46:53;;;;;;;8.05;1.15;;;12.40;99.90;;;;;;9960703;29;20474;-51
2021/05/21 05:51:53;;;;;;;9.13;0.85;;;12.40;99.90;;;;;;9964130;29;20045;-51
2021/05/21 05:56:54;;;;;;;3.42;0.55;;;12.30;99.90;;;;;;9967569;29;20052;-51
2021/05/21 06:01:55;;;;;;;11.70;2.25;;;12.40;99.90;;;;;;9964472;29;20457;-51
2021/05/21 06:06:56;;;;;;;5.55;0.77;;;12.50;99.90;;;;;;9960312;29;20058;-51
2021/05/21 06:11:57;;;;;;;10.52;1.00;;;12.40;99.90;;;;;;9962835;29;20053;-51
2021/05/21 06:16:58;;;;;;;2.60;0.45;;;12.50;99.90;;;;;;9965656;29;20164;-51
2021/05/21 06:21:59;;;;;;;1.75;0.60;;;12.50;99.90;;;;;;9960076;29;20119;-50
2021/05/21 06:32:09;;;;;;;4.95;0.95;;;12.60;99.90;;;;;;9965127;29;20081;-51
2021/05/21 06:37:10;;;;;;;14.38;1.05;;;12.60;99.90;;;;;;9962108;29;20053;-50
2021/05/21 06:42:11;;;;;;;5.25;0.73;;;12.60;99.90;;;;;;9964038;29;20058;-50
2021/05/21 06:47:12;;;;;;;5.05;0.68;;;12.80;99.90;;;;;;9963732;29;20337;-51
2021/05/21 06:52:12;;;;;;;2.00;1.02;;;12.80;99.90;;;;;;9961912;29;20094;-51
2021/05/21 06:57:14;;;;;;;7.10;1.33;;;12.70;99.90;;;;;;9963574;29;20077;-50
2021/05/21 07:02:15;;;;;;;2.90;0.57;;;12.80;99.90;;;;;;9960773;29;20046;-51
2021/05/21 07:07:15;;;;;;;5.95;0.70;;;12.90;99.90;;;;;;9960620;29;20570;-50
2021/05/21 07:12:17;;;;;;;2.88;0.77;;;12.90;99.90;;;;;;9963253;29;20541;-51
2021/05/21 07:17:18;;;;;;;3.40;0.65;;;13.00;99.90;;;;;;9962970;29;20255;-51
2021/05/21 07:22:19;;;;;;;1.20;0.50;;;13.20;99.90;;;;;;9967713;29;20049;-51
2021/05/21 07:27:19;;;;;;;1.73;0.70;;;13.40;99.90;;;;;;9964004;29;20063;-51
2021/05/21 07:32:20;;;;;;;3.45;0.60;;;13.60;99.90;;;;;;9971038;29;20094;-51
2021/05/21 07:37:21;;;;;;;7.88;1.38;;;13.80;99.90;;;;;;9962609;29;20062;-51
2021/05/21 07:42:22;;;;;;;2.85;0.90;;;13.60;99.90;;;;;;9966391;29;20088;-55
2021/05/21 07:47:23;;;;;;;12.40;0.70;;;13.40;99.90;;;;;;9960974;29;20633;-51
2021/05/21 07:52:23;;;;;;;4.72;0.98;;;13.50;99.90;;;;;;9960626;29;20038;-51
2021/05/21 07:57:24;;;;;;;2.17;0.40;;;13.60;99.90;;;;;;9963755;29;20049;-51
2021/05/21 08:02:25;;;;;;;3.17;0.98;;;13.50;99.90;;;;;;9963298;29;20042;-51
2021/05/21 08:07:26;;;;;;;5.05;0.95;;;13.50;99.90;;;;;;9958799;29;20054;-52
2021/05/21 08:12:27;;;;;;;2.35;0.70;;;13.40;99.90;;;;;;9960918;29;20166;-51
2021/05/21 08:17:31;;;;;;;4.22;0.65;;;13.40;99.90;;;;;;9959081;29;20123;-51
2021/05/21 08:22:32;;;;;;;3.10;0.80;;;13.50;99.90;;;;;;9965773;29;20089;-51
2021/05/21 08:27:33;;;;;;;10.10;1.25;;;13.80;99.90;;;;;;9968655;29;20046;-51
2021/05/21 08:32:35;;;;;;;7.47;1.13;;;13.90;99.90;;;;;;9966471;29;20050;-51
2021/05/21 08:37:36;;;;;;;2.88;1.40;;;14.20;99.90;;;;;;9960459;29;20054;-51
2021/05/21 08:42:39;;;;;;;5.97;1.67;;;14.00;99.90;;;;;;9965081;29;20055;-51
2021/05/21 08:47:40;;;;;;;9.70;1.15;;;13.80;99.90;;;;;;9966245;29;20141;-51
2021/05/21 08:52:42;;;;;;;5.95;1.33;;;13.70;99.90;;;;;;9969625;29;20253;-52
2021/05/21 08:57:43;;;;;;;7.75;1.05;;;13.60;99.90;;;;;;9972026;29;20376;-52
2021/05/21 09:02:44;;;;;;;1.30;0.55;;;13.50;99.90;;;;;;9970197;29;20061;-52
2021/05/21 09:07:46;;;;;;;0.75;0.28;;;13.70;99.90;;;;;;9966615;29;20384;-52
2021/05/21 09:12:48;;;;;;;2.20;0.50;;;13.60;99.90;;;;;;9971201;29;20117;-52
2021/05/21 09:17:49;;;;;;;3.63;1.40;;;13.60;99.90;;;;;;9973277;29;20034;-52
2021/05/21 09:23:08;;;;;;;6.30;0.80;;;13.50;99.90;;;;;;9971404;29;20038;-52
2021/05/21 09:28:32;;;;;;;6.15;0.80;;;13.60;99.90;;;;;;9972083;29;20053;-51
2021/05/21 09:33:34;;;;;;;2.08;1.15;;;13.90;99.90;;;;;;9969647;29;20137;-51
2021/05/21 09:38:45;;;;;;;7.00;0.70;;;13.70;99.90;;;;;;9973972;29;20090;-51
2021/05/21 09:43:54;;;;;;;2.50;0.57;;;13.60;99.90;;;;;;9973276;29;20325;-50
2021/05/21 09:48:55;;;;;;;6.10;0.98;;;13.90;99.90;;;;;;9973176;29;20075;-50
2021/05/21 09:54:00;;;;;;;1.75;0.50;;;14.30;99.90;;;;;;9971070;29;20521;-50
2021/05/21 09:59:02;;;;;;;3.78;0.75;;;14.60;99.90;;;;;;9976314;29;20058;-51
2021/05/21 10:04:08;;;;;;;1.45;0.55;;;14.60;99.90;;;;;;9976424;29;20207;-50
2021/05/21 10:09:09;;;;;;;2.50;0.70;;;14.50;99.90;;;;;;9974119;29;20045;-51
2021/05/21 10:14:10;;;;;;;5.03;1.17;;;14.80;99.90;;;;;;9937046;29;20088;-51
2021/05/21 10:19:11;;;;;;;5.45;1.00;;;14.60;99.90;;;;;;9964556;29;20049;-50
2021/05/21 10:24:14;;;;;;;2.25;1.00;;;14.60;99.90;;;;;;9964211;29;20483;-51
2021/05/21 10:29:21;;;;;;;4.72;0.50;;;14.30;99.90;;;;;;9965519;29;20042;-51
2021/05/21 10:34:23;;;;;;;1.48;0.40;;;14.70;99.90;;;;;;9961733;29;20079;-50
2021/05/21 10:39:23;;;;;;;0.95;0.40;;;15.20;99.90;;;;;;9962907;29;20045;-51
2021/05/21 10:44:49;;;;;;;13.30;0.73;;;15.40;99.90;;;;;;9963548;29;20054;-50
2021/05/21 10:49:53;;;;;;;1.80;0.73;;;15.10;99.90;;;;;;9966133;29;20043;-51
2021/05/21 10:54:53;;;;;;;5.30;2.00;;;15.50;99.90;;;;;;9962732;29;20046;-51
2021/05/21 10:59:55;;;;;;;3.40;1.02;;;16.20;99.90;;;;;;9963757;29;20050;-51
2021/05/21 11:05:20;;;;;;;4.95;1.05;;;15.60;99.90;;;;;;9965998;29;20133;-51
2021/05/21 11:10:28;;;;;;;1.67;0.30;;;15.90;99.90;;;;;;9966065;29;20049;-51
2021/05/21 11:15:36;;;;;;;2.13;0.50;;;16.80;99.90;;;;;;9964632;29;20101;-51
2021/05/21 11:21:10;;;;;;;3.77;1.87;;;16.50;99.90;;;;;;9963664;29;20526;-51
2021/05/21 11:26:13;;;;;;;1.23;0.38;;;16.50;99.90;;;;;;9966035;29;20084;-51
2021/05/21 11:31:16;;;;;;;1.00;0.30;;;17.00;99.90;;;;;;9964691;29;20038;-51
2021/05/21 11:36:22;;;;;;;1.65;0.30;;;16.90;99.90;;;;;;9960482;29;20491;-51
2021/05/21 11:41:40;;;;;;;3.53;0.60;;;17.10;99.90;;;;;;9960630;29;20053;-51
2021/05/21 11:46:43;;;;;;;6.53;0.60;;;17.10;99.90;;;;;;9960273;29;20066;-51
2021/05/21 11:51:44;;;;;;;2.40;0.32;;;17.10;99.90;;;;;;9965938;29;20038;-51
2021/05/21 11:56:44;;;;;;;2.85;0.40;;;16.70;99.90;;;;;;9965679;29;20074;-51
2021/05/21 12:02:05;;;;;;;2.13;0.77;;;16.70;99.90;;;;;;9963842;29;20582;-51
2021/05/21 12:07:06;;;;;;;2.10;0.60;;;16.50;99.90;;;;;;9962250;29;20050;-51
2021/05/21 12:12:08;;;;;;;2.33;1.20;;;15.70;99.90;;;;;;9964657;29;20494;-51
2021/05/21 12:17:09;;;;;;;1.63;0.50;;;15.10;99.90;;;;;;9968697;29;20081;-51
2021/05/21 12:22:10;;;;;;;0.98;0.60;;;15.90;99.90;;;;;;9970783;29;20046;-51
2021/05/21 12:27:11;;;;;;;1.25;0.65;;;16.30;99.90;;;;;;9971516;29;20515;-51
2021/05/21 12:32:14;;;;;;;2.75;0.75;;;16.80;99.90;;;;;;9969555;29;20085;-51
2021/05/21 12:37:21;;;;;;;2.67;0.30;;;17.10;99.90;;;;;;9967101;29;20103;-51
2021/05/21 12:42:22;;;;;;;1.70;0.43;;;16.50;99.90;;;;;;9970214;29;20621;-51
2021/05/21 12:47:24;;;;;;;1.40;0.20;;;16.30;99.90;;;;;;9968094;29;20057;-51
2021/05/21 12:52:24;;;;;;;2.85;0.30;;;16.50;99.90;;;;;;9968876;29;20063;-51
2021/05/21 12:57:26;;;;;;;0.63;0.20;;;16.60;99.90;;;;;;9970511;29;20519;-50
2021/05/21 13:02:29;;;;;;;3.40;0.25;;;16.70;99.90;;;;;;9968496;29;20058;-51
2021/05/21 13:07:30;;;;;;;0.70;0.17;;;16.70;99.90;;;;;;9960547;29;21168;-51
2021/05/21 13:12:32;;;;;;;1.98;0.43;;;17.00;99.90;;;;;;9967489;29;20100;-51
2021/05/21 13:17:38;;;;;;;1.55;0.75;;;17.30;99.90;;;;;;9967163;29;20145;-51
2021/05/21 13:22:39;;;;;;;0.95;0.22;;;18.00;99.90;;;;;;9967083;29;20046;-51
2021/05/21 13:27:39;;;;;;;1.58;0.73;;;17.80;99.90;;;;;;9966030;29;20141;-51
2021/05/21 13:32:41;;;;;;;3.92;0.88;;;16.90;99.90;;;;;;9970645;29;20058;-51
2021/05/21 13:37:42;;;;;;;2.63;0.50;;;16.70;99.90;;;;;;9964662;29;20069;-51
2021/05/21 13:42:43;;;;;;;4.28;0.80;;;17.10;99.90;;;;;;9963133;29;20057;-51
2021/05/21 13:47:44;;;;;;;2.65;0.63;;;16.40;99.90;;;;;;9972969;29;20073;-51
2021/05/21 13:52:46;;;;;;;2.10;0.30;;;16.30;99.90;;;;;;9967078;29;20054;-50
2021/05/21 13:57:47;;;;;;;3.38;1.00;;;17.10;99.90;;;;;;9976094;29;20046;-51
2021/05/21 14:02:49;;;;;;;5.30;1.25;;;17.50;99.90;;;;;;9974032;29;20054;-50
2021/05/21 14:07:50;;;;;;;5.05;0.65;;;17.60;99.90;;;;;;9970380;29;20054;-50
2021/05/21 14:12:51;;;;;;;3.70;1.35;;;17.30;99.90;;;;;;9967454;29;20057;-51
2021/05/21 14:17:52;;;;;;;3.40;0.52;;;17.00;99.90;;;;;;9967734;29;20039;-51
2021/05/21 14:22:54;;;;;;;4.85;0.75;;;16.60;99.90;;;;;;9967146;29;20126;-51
2021/05/21 14:27:55;;;;;;;2.22;0.22;;;16.40;99.90;;;;;;9968385;29;20052;-51
2021/05/21 14:32:58;;;;;;;1.95;0.10;;;16.20;99.90;;;;;;9952707;29;20031;-51
2021/05/21 14:37:58;;;;;;;1.38;0.30;;;16.60;99.90;;;;;;9966623;29;20038;-51
2021/05/21 14:43:00;;;;;;;0.93;0.22;;;16.80;99.90;;;;;;9963347;29;21307;-51
2021/05/21 14:48:01;;;;;;;4.15;0.70;;;16.70;99.90;;;;;;9968138;29;20142;-51
2021/05/21 14:53:02;;;;;;;3.58;0.50;;;16.60;99.80;;;;;;9959171;29;20046;-51
2021/05/21 14:58:04;;;;;;;2.15;0.20;;;16.20;99.90;;;;;;9966294;29;20050;-51
2021/05/21 15:03:06;;;;;;;2.35;0.63;;;16.30;98.60;;;;;;9965794;29;20046;-50
2021/05/21 15:08:09;;;;;;;1.42;0.40;;;16.50;98.40;;;;;;9963457;29;20054;-50
2021/05/21 15:13:11;;;;;;;1.65;0.30;;;16.40;98.70;;;;;;9964882;29;20054;-50
2021/05/21 15:28:35;;;;;;;1.73;0.35;;;16.60;97.00;;;;;;9967991;29;20246;-50
2021/05/21 15:33:37;;;;;;;1.85;0.60;;;16.60;95.80;;;;;;9968740;29;20057;-50
2021/05/21 15:38:38;;;;;;;1.80;0.63;;;16.60;95.90;;;;;;9957644;29;20325;-50
2021/05/21 15:59:05;;;;;;;1.77;0.30;;;16.80;96.20;;;;;;9964425;29;20183;-50
2021/05/21 16:04:06;;;;;;;1.27;0.50;;;16.70;95.00;;;;;;9964070;29;20046;-50
2021/05/21 16:09:07;;;;;;;4.53;1.65;;;16.50;95.40;;;;;;9963895;29;20499;-49
2021/05/21 16:14:08;;;;;;;3.33;0.85;;;16.40;95.70;;;;;;9969416;29;20119;-50
2021/05/21 16:19:09;;;;;;;6.18;0.50;;;16.30;96.40;;;;;;9960937;29;20530;-50
2021/05/21 16:24:09;;;;;;;1.02;0.63;;;16.30;96.40;;;;;;9966042;29;20054;-50
2021/05/21 16:29:10;;;;;;;6.60;0.50;;;16.20;97.40;;;;;;9969858;29;20055;-49
2021/05/21 16:34:11;;;;;;;4.75;0.80;;;16.20;97.00;;;;;;9965063;29;20073;-49
2021/05/21 16:39:12;;;;;;;3.28;0.70;;;16.20;95.00;;;;;;9962794;29;20042;-49
2021/05/21 16:44:13;;;;;;;8.30;0.50;;;16.20;96.50;;;;;;9969209;29;20046;-49
2021/05/21 16:49:14;;;;;;;4.03;0.70;;;16.10;97.00;;;;;;9961956;29;20035;-49
2021/05/21 16:54:14;;;;;;;4.15;1.00;;;16.10;96.00;;;;;;9960932;29;20106;-49
2021/05/21 16:59:15;;;;;;;2.63;0.30;;;16.10;95.40;;;;;;9966203;29;20065;-49
2021/05/21 17:04:16;;;;;;;6.78;0.80;;;15.90;96.00;;;;;;9969934;29;20039;-50
2021/05/21 17:09:16;;;;;;;6.00;0.68;;;15.90;96.10;;;;;;9967908;29;20589;-49
2021/05/21 17:14:22;;;;;;;3.20;0.73;;;15.90;96.90;;;;;;9973305;29;20065;-49
2021/05/21 17:41:05;;;;;;;4.93;0.80;;;15.40;96.30;;;;;;9972491;29;20038;-49
2021/05/21 18:17:10;;;;;;;4.07;0.93;;;14.60;99.40;;;;;;9965908;29;20118;-50
2021/05/21 18:49:16;;;;;;;2.38;0.28;;;14.30;99.90;;;;;;9968075;29;20049;-51
2021/05/21 19:04:36;;;;;;;5.00;0.88;;;14.10;99.90;;;;;;9968027;29;20050;-49
2021/05/21 19:15:01;;;;;;;4.00;0.50;;;13.90;99.90;;;;;;9963824;29;20350;-51
2021/05/21 19:20:07;;;;;;;1.33;0.40;;;13.80;99.90;;;;;;9963997;29;20050;-51
2021/05/21 19:25:08;;;;;;;1.00;0.30;;;13.90;99.90;;;;;;9962951;29;20049;-51
2021/05/21 20:12:06;;;;;;;1.92;0.45;;;13.40;99.90;;;;;;9965096;29;20406;-50
2021/05/21 20:17:17;;;;;;;1.92;0.52;;;13.30;99.90;;;;;;9962298;29;20054;-50
2021/05/21 20:22:19;;;;;;;3.70;0.70;;;13.30;99.90;;;;;;9963547;29;20446;-50
2021/05/21 20:27:26;;;;;;;2.58;0.80;;;13.30;99.90;;;;;;9962551;29;20453;-51
2021/05/21 21:09:05;;;;;;;;;;;12.90;99.90;;;;;;9967749;29;20330;-51
2021/05/21 21:47:16;;;;;;;;;;;12.70;99.90;;;;;;9967052;29;19920;-51
2021/05/21 22:01:16;;;;;;;;;;;12.50;99.90;;;;;;9966567;29;19927;-51
2021/05/21 22:27:22;;;;;;;;;;;12.50;99.90;;;;;;9967244;29;20537;-52
2021/05/21 22:32:23;;;;;;;;;;;12.50;99.90;;;;;;9965186;29;19916;-51
2021/05/21 22:37:23;;;;;;;;;;;12.50;99.90;;;;;;9966537;29;19920;-51
2021/05/21 22:42:25;;;;;;;;;;;12.50;99.90;;;;;;9964557;29;19921;-51
2021/05/21 22:47:25;;;;;;;;;;;12.50;99.90;;;;;;9963258;29;19935;-51
2021/05/21 22:52:26;;;;;;;;;;;12.50;99.90;;;;;;9961890;29;19928;-51
2021/05/21 22:57:27;;;;;;;;;;;12.50;99.90;;;;;;9964622;29;19946;-51
2021/05/21 23:02:27;;;;;;;;;;;12.50;99.90;;;;;;9965369;29;20247;-50
2021/05/21 23:07:28;;;;;;;;;;;12.40;99.90;;;;;;9964472;29;20330;-51
2021/05/21 23:12:29;;;;;;;;;;;12.40;99.90;;;;;;9961819;29;19920;-51
2021/05/21 23:17:29;;;;;;;;;;;12.30;99.90;;;;;;9965027;29;20328;-51
2021/05/21 23:22:30;;;;;;;;;;;12.40;99.90;;;;;;9962335;29;20493;-52
2021/05/21 23:27:31;;;;;;;;;;;12.30;99.90;;;;;;9965625;29;19932;-51
2021/05/21 23:32:32;;;;;;;;;;;12.30;99.90;;;;;;9962192;29;19921;-51
2021/05/21 23:37:33;;;;;;;;;;;12.30;99.90;;;;;;9947179;29;19921;-51
2021/05/21 23:42:33;;;;;;;;;;;12.40;99.90;;;;;;9963238;29;20325;-50
2021/05/21 23:47:34;;;;;;;;;;;12.40;99.90;;;;;;9965068;29;19920;-51
2021/05/21 23:52:35;;;;;;;;;;;12.30;99.90;;;;;;9960650;29;19917;-51
2021/05/21 23:57:36;;;;;;;;;;;12.30;99.90;;;;;;9965011;29;20369;-51
